Time;durP1;ratioP1;P1;durP2;ratioP2;P2;SDS_P1;SDS_P2;PMS_P1;PMS_P2;Temp;Humidity;BMP_temperature;BMP_pressure;BME280_temperature;BME280_humidity;BME280_pressure;Samples;Min_cycle;Max_cycle;Signal;HPM_P1;HPM_P2
2023/09/04 00:02:03;;;;;;;10.98;6.50;;;;;;;;;;6179409;23;20478;-43
2023/09/04 00:04:32;;;;;;;10.90;6.20;;;;;;;;;;6184301;23;20020;-43
2023/09/04 00:07:02;;;;;;;11.30;5.93;;;;;;;;;;6192462;23;20048;-42
2023/09/04 00:09:31;;;;;;;12.23;6.20;;;;;;;;;;6180839;23;20042;-44
2023/09/04 00:11:58;;;;;;;11.80;6.60;;;;;;;;;;6190374;23;20016;-44
2023/09/04 00:14:26;;;;;;;10.50;5.75;;;;;;;;;;6176579;23;20451;-45
2023/09/04 00:16:56;;;;;;;11.43;5.88;;;;;;;;;;6188538;23;20013;-44
2023/09/04 00:19:25;;;;;;;10.83;6.07;;;;;;;;;;6187501;23;20088;-45
2023/09/04 00:21:53;;;;;;;16.67;6.50;;;;;;;;;;6181091;23;20494;-44
2023/09/04 00:24:23;;;;;;;13.30;6.32;;;;;;;;;;6187429;23;20099;-44
2023/09/04 00:26:51;;;;;;;10.25;6.60;;;;;;;;;;6172733;23;20017;-45
2023/09/04 00:29:19;;;;;;;11.18;5.95;;;;;;;;;;6189357;23;20092;-44
2023/09/04 00:31:47;;;;;;;11.63;6.23;;;;;;;;;;6181382;23;20437;-42
2023/09/04 00:34:14;;;;;;;11.35;6.05;;;;;;;;;;6187141;23;20480;-43
2023/09/04 00:36:42;;;;;;;9.65;6.00;;;;;;;;;;6177575;23;20387;-44
2023/09/04 00:39:10;;;;;;;11.32;5.63;;;;;;;;;;6182116;23;20063;-42
2023/09/04 00:41:40;;;;;;;11.73;6.00;;;;;;;;;;6177082;23;20027;-43
2023/09/04 00:44:08;;;;;;;11.07;5.77;;;;;;;;;;6190363;23;20434;-45
2023/09/04 00:46:36;;;;;;;14.55;5.50;;;;;;;;;;6182559;23;20075;-42
2023/09/04 00:49:04;;;;;;;10.75;5.95;;;;;;;;;;6181469;23;20095;-42
2023/09/04 00:51:32;;;;;;;10.25;5.05;;;;;;;;;;6189433;23;20360;-42
2023/09/04 00:54:00;;;;;;;9.75;5.25;;;;;;;;;;6180524;23;20071;-42
2023/09/04 00:56:29;;;;;;;9.13;5.43;;;;;;;;;;6182709;23;20024;-42
2023/09/04 00:58:58;;;;;;;9.38;5.57;;;;;;;;;;6185470;23;20020;-42
2023/09/04 01:01:26;;;;;;;16.27;5.90;;;;;;;;;;6182196;23;20074;-42
2023/09/04 01:03:54;;;;;;;11.68;5.65;;;;;;;;;;6193806;23;20095;-41
2023/09/04 01:06:22;;;;;;;10.63;6.45;;;;;;;;;;6176472;23;20024;-41
2023/09/04 01:08:51;;;;;;;9.53;5.70;;;;;;;;;;6189526;23;20036;-42
2023/09/04 01:11:22;;;;;;;11.05;5.82;;;;;;;;;;6186163;23;20019;-42
2023/09/04 01:13:51;;;;;;;9.82;5.35;;;;;;;;;;6169195;23;20813;-42
2023/09/04 01:16:21;;;;;;;9.88;5.70;;;;;;;;;;6187062;23;20108;-42
2023/09/04 01:18:50;;;;;;;11.65;6.00;;;;;;;;;;6179643;23;20087;-41
2023/09/04 01:21:20;;;;;;;9.63;5.57;;;;;;;;;;6194062;23;20013;-42
2023/09/04 01:23:47;;;;;;;13.27;6.32;;;;;;;;;;6181323;23;20021;-41
2023/09/04 01:26:17;;;;;;;11.98;6.10;;;;;;;;;;6182038;23;20017;-49
2023/09/04 01:28:49;;;;;;;10.57;6.25;;;;;;;;;;6177212;23;20071;-43
2023/09/04 01:31:20;;;;;;;12.25;6.43;;;;;;;;;;6188947;23;20024;-43
2023/09/04 01:33:51;;;;;;;11.20;6.70;;;;;;;;;;6181311;23;20019;-44
2023/09/04 01:36:23;;;;;;;12.55;6.55;;;;;;;;;;6182566;23;20042;-41
2023/09/04 01:38:51;;;;;;;14.00;7.13;;;;;;;;;;6186971;23;20537;-41
2023/09/04 01:41:18;;;;;;;11.98;6.68;;;;;;;;;;6177231;23;20017;-42
2023/09/04 01:43:46;;;;;;;14.05;7.03;;;;;;;;;;6188835;23;20017;-41
2023/09/04 01:46:14;;;;;;;11.43;6.37;;;;;;;;;;6179881;23;20016;-42
2023/09/04 01:48:42;;;;;;;12.13;6.68;;;;;;;;;;6189836;23;20027;-43
2023/09/04 01:51:14;;;;;;;13.27;6.78;;;;;;;;;;6185636;23;20024;-41
2023/09/04 01:53:47;;;;;;;13.68;6.95;;;;;;;;;;6188282;23;20012;-42
2023/09/04 01:56:14;;;;;;;12.95;6.63;;;;;;;;;;6189760;23;20020;-45
2023/09/04 01:58:42;;;;;;;12.90;6.37;;;;;;;;;;6182115;23;20439;-41
2023/09/04 02:01:10;;;;;;;12.13;6.82;;;;;;;;;;6194028;23;20023;-41
2023/09/04 02:03:38;;;;;;;14.75;7.40;;;;;;;;;;6183956;23;20491;-42
2023/09/04 02:06:06;;;;;;;13.48;7.38;;;;;;;;;;6184529;23;20091;-42
2023/09/04 02:08:34;;;;;;;12.45;7.32;;;;;;;;;;6195882;23;20491;-43
2023/09/04 02:11:03;;;;;;;16.10;7.47;;;;;;;;;;6171186;23;20028;-42
2023/09/04 02:13:34;;;;;;;14.10;7.47;;;;;;;;;;6173319;23;20790;-43
2023/09/04 02:16:02;;;;;;;14.30;8.10;;;;;;;;;;6186183;23;20051;-43
2023/09/04 02:18:30;;;;;;;13.55;6.93;;;;;;;;;;6183719;23;20012;-43
2023/09/04 02:20:59;;;;;;;14.52;7.88;;;;;;;;;;6187069;23;20336;-43
2023/09/04 02:23:27;;;;;;;13.60;7.90;;;;;;;;;;6199915;23;20016;-43
2023/09/04 02:25:58;;;;;;;16.05;8.45;;;;;;;;;;6176285;23;20402;-43
2023/09/04 02:28:27;;;;;;;14.75;8.15;;;;;;;;;;6186519;23;20021;-43
2023/09/04 02:30:55;;;;;;;15.55;8.60;;;;;;;;;;6192080;23;20051;-44
2023/09/04 02:33:23;;;;;;;15.63;8.32;;;;;;;;;;6194005;23;20017;-43
2023/09/04 02:35:51;;;;;;;16.70;8.67;;;;;;;;;;6184389;23;20680;-44
2023/09/04 02:38:20;;;;;;;15.40;9.00;;;;;;;;;;6164690;23;20225;-43
2023/09/04 02:40:48;;;;;;;16.15;9.13;;;;;;;;;;6194210;23;20013;-43
2023/09/04 02:43:15;;;;;;;18.90;8.95;;;;;;;;;;6189164;23;20027;-49
2023/09/04 02:45:45;;;;;;;16.10;8.63;;;;;;;;;;6187038;23;20013;-42
2023/09/04 02:48:13;;;;;;;14.73;9.07;;;;;;;;;;6197398;23;20024;-44
2023/09/04 02:50:41;;;;;;;13.80;8.13;;;;;;;;;;6193399;23;20022;-43
2023/09/04 02:53:14;;;;;;;14.90;7.25;;;;;;;;;;6190529;23;20490;-44
2023/09/04 02:55:46;;;;;;;16.38;8.90;;;;;;;;;;6189931;23;20436;-45
2023/09/04 02:58:15;;;;;;;18.15;9.32;;;;;;;;;;6186695;23;20364;-43
2023/09/04 03:00:43;;;;;;;19.57;10.30;;;;;;;;;;6184872;23;20353;-44
2023/09/04 03:03:12;;;;;;;19.45;9.93;;;;;;;;;;6149908;23;20012;-43
2023/09/04 03:05:40;;;;;;;18.98;9.98;;;;;;;;;;6184285;23;20020;-44
2023/09/04 03:08:09;;;;;;;16.85;9.20;;;;;;;;;;6176424;23;20020;-46
2023/09/04 03:10:37;;;;;;;15.63;8.82;;;;;;;;;;6193921;23;20017;-43
2023/09/04 03:13:04;;;;;;;18.53;9.53;;;;;;;;;;6195864;23;20017;-43
2023/09/04 03:15:33;;;;;;;16.83;9.15;;;;;;;;;;6174540;23;20608;-40
2023/09/04 03:18:01;;;;;;;19.75;10.80;;;;;;;;;;6194760;23;20423;-40
2023/09/04 03:20:31;;;;;;;18.35;9.80;;;;;;;;;;6196358;23;20232;-42
2023/09/04 03:22:59;;;;;;;20.55;9.73;;;;;;;;;;6191806;23;20078;-42
2023/09/04 03:25:27;;;;;;;18.93;9.73;;;;;;;;;;6185125;23;20026;-44
2023/09/04 03:27:54;;;;;;;16.45;8.95;;;;;;;;;;6193956;23;20017;-44
2023/09/04 03:30:22;;;;;;;17.10;10.32;;;;;;;;;;6183099;23;20245;-43
2023/09/04 03:32:50;;;;;;;16.50;8.85;;;;;;;;;;6188602;23;20356;-43
2023/09/04 03:35:25;;;;;;;18.40;9.32;;;;;;;;;;6183426;23;20024;-43
2023/09/04 03:37:54;;;;;;;18.67;10.20;;;;;;;;;;6191956;23;20017;-44
2023/09/04 03:40:23;;;;;;;16.83;9.50;;;;;;;;;;6180264;23;20017;-43
2023/09/04 03:42:55;;;;;;;20.90;10.63;;;;;;;;;;6187973;23;20525;-43
2023/09/04 03:45:23;;;;;;;18.13;9.82;;;;;;;;;;6193718;23;20056;-43
2023/09/04 03:47:50;;;;;;;18.10;9.52;;;;;;;;;;6182646;23;20477;-45
2023/09/04 03:50:19;;;;;;;19.90;10.47;;;;;;;;;;6195596;23;20028;-43
2023/09/04 03:52:47;;;;;;;19.90;10.77;;;;;;;;;;6182248;23;20017;-44
2023/09/04 03:55:16;;;;;;;16.58;9.23;;;;;;;;;;6193800;23;20020;-43
2023/09/04 03:57:46;;;;;;;17.92;9.80;;;;;;;;;;6183444;23;20069;-43
2023/09/04 04:00:16;;;;;;;21.75;10.70;;;;;;;;;;6189961;23;20415;-45
2023/09/04 04:02:45;;;;;;;17.67;9.07;;;;;;;;;;6182581;23;20020;-44
2023/09/04 04:05:14;;;;;;;18.77;10.07;;;;;;;;;;6192216;23;20016;-43
2023/09/04 04:07:44;;;;;;;19.10;10.43;;;;;;;;;;6191132;23;20447;-44
2023/09/04 04:10:11;;;;;;;21.65;11.35;;;;;;;;;;6183779;23;20386;-43
2023/09/04 04:12:41;;;;;;;20.90;10.80;;;;;;;;;;6193855;23;20013;-42
2023/09/04 04:15:10;;;;;;;24.77;11.73;;;;;;;;;;6186711;23;20013;-44
2023/09/04 04:17:37;;;;;;;27.10;13.95;;;;;;;;;;6194531;23;20019;-43
2023/09/04 04:20:10;;;;;;;28.58;14.57;;;;;;;;;;6189368;23;20078;-42
2023/09/04 04:22:38;;;;;;;37.33;17.88;;;;;;;;;;6187267;23;20017;-44
2023/09/04 04:25:06;;;;;;;35.72;17.65;;;;;;;;;;6180287;23;20071;-45
2023/09/04 04:27:34;;;;;;;40.13;18.77;;;;;;;;;;6196159;23;20031;-43
2023/09/04 04:30:04;;;;;;;38.42;19.15;;;;;;;;;;6185427;23;20392;-45
2023/09/04 04:32:32;;;;;;;42.58;20.73;;;;;;;;;;6191293;23;20013;-43
2023/09/04 04:35:00;;;;;;;47.75;20.65;;;;;;;;;;6182649;23;20021;-44
2023/09/04 04:37:28;;;;;;;45.10;20.30;;;;;;;;;;6194084;23;20021;-43
2023/09/04 04:39:55;;;;;;;45.07;20.63;;;;;;;;;;6185335;23;20055;-43
2023/09/04 04:42:24;;;;;;;41.45;20.30;;;;;;;;;;6195920;23;20012;-43
2023/09/04 04:44:52;;;;;;;44.30;20.70;;;;;;;;;;6183105;23;20013;-43
2023/09/04 04:47:21;;;;;;;44.65;20.48;;;;;;;;;;6195928;23;20013;-45
2023/09/04 04:49:49;;;;;;;45.88;20.17;;;;;;;;;;6170507;23;20016;-44
2023/09/04 04:52:17;;;;;;;45.30;21.57;;;;;;;;;;6189975;23;20047;-44
2023/09/04 04:54:45;;;;;;;45.40;20.75;;;;;;;;;;6181180;23;20387;-43
2023/09/04 04:57:13;;;;;;;42.70;21.00;;;;;;;;;;6185639;23;20013;-44
2023/09/04 04:59:45;;;;;;;44.47;19.02;;;;;;;;;;6184255;23;20013;-43
2023/09/04 05:02:13;;;;;;;47.28;20.05;;;;;;;;;;6178331;23;20021;-44
2023/09/04 05:04:45;;;;;;;34.83;16.93;;;;;;;;;;6182453;23;20460;-42
2023/09/04 05:07:14;;;;;;;34.92;16.67;;;;;;;;;;6180840;23;20048;-42
2023/09/04 05:09:42;;;;;;;36.42;17.77;;;;;;;;;;6187279;23;20083;-44
2023/09/04 05:12:10;;;;;;;36.75;17.23;;;;;;;;;;6177422;23;20580;-44
2023/09/04 05:14:37;;;;;;;37.55;18.75;;;;;;;;;;6188423;23;20012;-44
2023/09/04 05:17:05;;;;;;;41.83;18.27;;;;;;;;;;6183032;23;20558;-42
2023/09/04 05:19:33;;;;;;;39.83;18.17;;;;;;;;;;6187304;23;20035;-44
2023/09/04 05:22:05;;;;;;;38.83;18.45;;;;;;;;;;6187723;23;20016;-43
2023/09/04 05:24:32;;;;;;;37.65;17.95;;;;;;;;;;6185000;23;20012;-42
2023/09/04 05:27:00;;;;;;;35.63;18.05;;;;;;;;;;6174302;23;20027;-46
2023/09/04 05:29:27;;;;;;;39.70;18.23;;;;;;;;;;6190744;23;20404;-43
2023/09/04 05:31:56;;;;;;;39.38;18.20;;;;;;;;;;6173504;23;20670;-48
2023/09/04 05:34:23;;;;;;;36.60;17.55;;;;;;;;;;6178707;23;20017;-42
2023/09/04 05:36:53;;;;;;;34.88;17.27;;;;;;;;;;6172221;23;20373;-44
2023/09/04 05:39:22;;;;;;;37.88;17.75;;;;;;;;;;6175125;23;20016;-43
2023/09/04 05:41:50;;;;;;;42.63;19.57;;;;;;;;;;6171772;23;20063;-43
2023/09/04 05:44:19;;;;;;;44.78;21.58;;;;;;;;;;6181282;23;20221;-44
2023/09/04 05:46:47;;;;;;;57.83;25.80;;;;;;;;;;6179737;23;20145;-43
2023/09/04 05:49:15;;;;;;;60.00;25.65;;;;;;;;;;6184693;23;20020;-43
2023/09/04 05:51:43;;;;;;;64.68;26.90;;;;;;;;;;6183515;23;20071;-43
2023/09/04 05:54:11;;;;;;;67.93;29.17;;;;;;;;;;6179775;23;20423;-43
2023/09/04 05:56:40;;;;;;;72.63;29.70;;;;;;;;;;6183378;23;20413;-43
2023/09/04 05:59:08;;;;;;;69.05;29.10;;;;;;;;;;6180273;23;20451;-42
2023/09/04 06:01:36;;;;;;;81.03;33.47;;;;;;;;;;6180128;23;20021;-45
2023/09/04 06:04:04;;;;;;;83.00;32.35;;;;;;;;;;6173468;23;20020;-43
2023/09/04 06:06:32;;;;;;;85.07;34.57;;;;;;;;;;6177928;23;20016;-44
2023/09/04 06:08:59;;;;;;;88.10;33.70;;;;;;;;;;6181998;23;20054;-43
2023/09/04 06:11:27;;;;;;;80.55;32.25;;;;;;;;;;6183911;23;20063;-43
2023/09/04 06:13:56;;;;;;;92.38;36.55;;;;;;;;;;6178461;23;20016;-42
2023/09/04 06:16:26;;;;;;;83.40;33.60;;;;;;;;;;6188409;23;20027;-41
2023/09/04 06:18:54;;;;;;;85.20;33.63;;;;;;;;;;6188248;23;20013;-42
2023/09/04 06:21:22;;;;;;;92.40;35.03;;;;;;;;;;6183234;23;20012;-42
2023/09/04 06:23:50;;;;;;;83.07;34.03;;;;;;;;;;6178224;23;20047;-44
2023/09/04 06:26:17;;;;;;;82.18;33.20;;;;;;;;;;6180996;23;20016;-44
2023/09/04 06:28:45;;;;;;;81.35;32.47;;;;;;;;;;6176981;23;20032;-43
2023/09/04 06:31:14;;;;;;;74.97;33.07;;;;;;;;;;6185977;23;20020;-44
2023/09/04 06:33:43;;;;;;;84.75;32.33;;;;;;;;;;6175091;23;20027;-42
2023/09/04 06:36:11;;;;;;;76.07;31.83;;;;;;;;;;6183846;23;20021;-42
2023/09/04 06:38:39;;;;;;;83.75;33.78;;;;;;;;;;6176368;23;20020;-44
2023/09/04 06:41:06;;;;;;;75.53;30.88;;;;;;;;;;6183071;23;20035;-42
2023/09/04 06:43:34;;;;;;;73.80;31.17;;;;;;;;;;6180474;23;20027;-42
2023/09/04 06:46:02;;;;;;;70.80;29.20;;;;;;;;;;6183890;23;20096;-42
2023/09/04 06:48:32;;;;;;;66.72;29.05;;;;;;;;;;6188392;23;20108;-42
2023/09/04 06:51:00;;;;;;;72.47;28.38;;;;;;;;;;6175318;23;20020;-42
2023/09/04 06:53:28;;;;;;;79.60;31.38;;;;;;;;;;6185809;23;20020;-42
2023/09/04 06:55:56;;;;;;;76.43;32.20;;;;;;;;;;6181919;23;20698;-42
2023/09/04 06:58:26;;;;;;;73.35;31.42;;;;;;;;;;6182996;23;20017;-43
2023/09/04 07:00:56;;;;;;;79.88;32.63;;;;;;;;;;6184560;23;20023;-43
2023/09/04 07:03:24;;;;;;;74.55;32.20;;;;;;;;;;6179514;23;20044;-45
2023/09/04 07:05:54;;;;;;;75.35;33.95;;;;;;;;;;6183697;23;20104;-43
2023/09/04 07:08:22;;;;;;;78.33;33.27;;;;;;;;;;6179116;23;20017;-44
2023/09/04 07:10:49;;;;;;;75.90;33.65;;;;;;;;;;6178902;23;20017;-42
2023/09/04 07:13:17;;;;;;;74.63;32.88;;;;;;;;;;6184699;23;20031;-42
2023/09/04 07:15:45;;;;;;;76.60;31.55;;;;;;;;;;6181869;23;20023;-42
2023/09/04 07:18:13;;;;;;;68.72;30.58;;;;;;;;;;6171288;23;20259;-43
2023/09/04 07:20:41;;;;;;;74.53;32.03;;;;;;;;;;6178423;23;20100;-46
2023/09/04 07:23:10;;;;;;;69.28;31.27;;;;;;;;;;6190330;23;20024;-42
2023/09/04 07:25:49;;;;;;;62.40;26.27;;;;;;;;;;6176530;23;20224;-43
2023/09/04 07:28:18;;;;;;;67.88;29.35;;;;;;;;;;6186068;23;20465;-43
2023/09/04 07:30:46;;;;;;;65.20;29.33;;;;;;;;;;6186192;23;20479;-43
2023/09/04 07:33:14;;;;;;;70.67;31.07;;;;;;;;;;6180424;23;20020;-44
2023/09/04 07:35:42;;;;;;;67.35;30.08;;;;;;;;;;6184379;23;20653;-42
2023/09/04 07:38:11;;;;;;;68.30;30.27;;;;;;;;;;6169496;23;20264;-43
2023/09/04 07:40:39;;;;;;;70.43;31.02;;;;;;;;;;6185716;23;20020;-44
2023/09/04 07:43:07;;;;;;;64.25;29.42;;;;;;;;;;6177247;23;20382;-43
2023/09/04 07:45:34;;;;;;;63.87;31.10;;;;;;;;;;6185013;23;20040;-43
2023/09/04 07:48:03;;;;;;;63.15;30.23;;;;;;;;;;6165129;23;20053;-42
2023/09/04 07:50:32;;;;;;;65.03;29.10;;;;;;;;;;6187249;23;20021;-44
2023/09/04 07:53:01;;;;;;;59.92;27.67;;;;;;;;;;6129182;23;20032;-47
2023/09/04 07:55:31;;;;;;;63.45;29.35;;;;;;;;;;6166427;23;20021;-44
2023/09/04 07:58:02;;;;;;;65.47;27.43;;;;;;;;;;6173865;23;20067;-44
2023/09/04 08:00:30;;;;;;;63.75;28.17;;;;;;;;;;6177785;23;20055;-44
2023/09/04 08:02:58;;;;;;;65.95;28.23;;;;;;;;;;6172647;23;20455;-43
2023/09/04 08:05:30;;;;;;;62.47;29.45;;;;;;;;;;6169404;23;20099;-46
2023/09/04 08:08:02;;;;;;;41.78;19.92;;;;;;;;;;6157646;23;20461;-44
2023/09/04 08:10:30;;;;;;;57.07;27.53;;;;;;;;;;6170150;23;20355;-45
2023/09/04 08:12:59;;;;;;;60.10;28.27;;;;;;;;;;6165254;23;20036;-42
2023/09/04 08:15:27;;;;;;;31.95;15.27;;;;;;;;;;6147630;23;20020;-43
2023/09/04 08:17:55;;;;;;;53.95;27.63;;;;;;;;;;6163613;23;20021;-45
2023/09/04 08:20:23;;;;;;;53.72;24.63;;;;;;;;;;6155483;23;20044;-44
2023/09/04 08:22:52;;;;;;;44.23;23.23;;;;;;;;;;6141314;23;20742;-45
2023/09/04 08:25:19;;;;;;;53.35;27.20;;;;;;;;;;6157033;23;20203;-43
2023/09/04 08:27:47;;;;;;;39.85;19.15;;;;;;;;;;6160594;23;20012;-44
2023/09/04 08:30:37;;;;;;;27.42;13.23;;;;;;;;;;6100838;23;20019;-48
2023/09/04 08:33:07;;;;;;;47.50;24.40;;;;;;;;;;6096108;23;20096;-45
2023/09/04 08:35:35;;;;;;;17.03;8.03;;;;;;;;;;6101148;23;20090;-46
2023/09/04 08:38:06;;;;;;;47.10;23.40;;;;;;;;;;6078237;23;20494;-45
2023/09/04 08:40:33;;;;;;;49.65;23.38;;;;;;;;;;6147849;23;20539;-44
2023/09/04 08:43:02;;;;;;;45.83;23.10;;;;;;;;;;6122400;23;20028;-46
2023/09/04 08:45:29;;;;;;;29.83;15.82;;;;;;;;;;6169506;23;20020;-43
2023/09/04 08:48:00;;;;;;;33.97;16.27;;;;;;;;;;6158897;23;20712;-45
2023/09/04 08:50:30;;;;;;;48.45;23.65;;;;;;;;;;6175429;23;20475;-44
2023/09/04 08:52:58;;;;;;;35.13;17.17;;;;;;;;;;6181437;23;20028;-43
2023/09/04 08:55:26;;;;;;;22.02;10.77;;;;;;;;;;6169395;23;20020;-44
2023/09/04 08:57:59;;;;;;;25.73;12.93;;;;;;;;;;6174341;23;20017;-45
2023/09/04 09:00:27;;;;;;;29.97;13.30;;;;;;;;;;6179086;23;20021;-44
2023/09/04 09:02:57;;;;;;;31.17;16.50;;;;;;;;;;6177956;23;20491;-44
2023/09/04 09:05:33;;;;;;;32.30;16.83;;;;;;;;;;6175141;23;20021;-44
2023/09/04 09:08:02;;;;;;;24.20;12.45;;;;;;;;;;6171715;23;20028;-44
2023/09/04 09:10:30;;;;;;;21.50;11.18;;;;;;;;;;6174553;23;20016;-43
2023/09/04 09:12:58;;;;;;;22.37;10.47;;;;;;;;;;6179147;23;20047;-47
2023/09/04 09:15:28;;;;;;;26.85;12.95;;;;;;;;;;6165891;23;20018;-45
2023/09/04 09:17:58;;;;;;;26.38;14.32;;;;;;;;;;6144486;23;20123;-43
2023/09/04 09:20:31;;;;;;;35.17;19.92;;;;;;;;;;6166098;23;20017;-45
2023/09/04 09:22:59;;;;;;;17.38;9.07;;;;;;;;;;6171094;23;20021;-44
2023/09/04 09:25:28;;;;;;;30.27;14.77;;;;;;;;;;6147438;23;20028;-44
2023/09/04 09:28:00;;;;;;;31.83;17.30;;;;;;;;;;6171950;23;20435;-44
2023/09/04 09:30:35;;;;;;;19.73;10.55;;;;;;;;;;6148354;23;20017;-47
2023/09/04 09:33:04;;;;;;;18.58;9.10;;;;;;;;;;6157125;23;20023;-45
2023/09/04 09:35:33;;;;;;;17.42;8.48;;;;;;;;;;6167624;23;20462;-43
2023/09/04 09:38:01;;;;;;;19.43;9.20;;;;;;;;;;6156202;23;20091;-44
2023/09/04 09:40:30;;;;;;;29.95;15.00;;;;;;;;;;6168392;23;20051;-44
2023/09/04 09:42:59;;;;;;;17.45;9.82;;;;;;;;;;6144891;23;20250;-48
2023/09/04 09:45:30;;;;;;;25.00;14.20;;;;;;;;;;6174271;23;20020;-49
2023/09/04 09:47:58;;;;;;;30.25;15.55;;;;;;;;;;6145993;23;20487;-47
2023/09/04 09:50:26;;;;;;;23.93;12.77;;;;;;;;;;6171116;23;20158;-47
2023/09/04 09:52:59;;;;;;;20.35;11.80;;;;;;;;;;6155379;23;20104;-46
2023/09/04 09:55:29;;;;;;;15.55;7.90;;;;;;;;;;6155648;23;20016;-45
2023/09/04 09:57:57;;;;;;;17.90;9.70;;;;;;;;;;6157474;23;20021;-47
2023/09/04 10:00:25;;;;;;;18.90;10.40;;;;;;;;;;6161822;23;20016;-45
2023/09/04 10:02:54;;;;;;;13.07;7.30;;;;;;;;;;6168865;23;20020;-46
2023/09/04 10:05:23;;;;;;;12.15;6.53;;;;;;;;;;6163222;23;20017;-45
2023/09/04 10:07:55;;;;;;;24.23;12.23;;;;;;;;;;6167898;23;20025;-44
2023/09/04 10:10:25;;;;;;;15.85;9.38;;;;;;;;;;6161290;23;20027;-44
2023/09/04 10:12:56;;;;;;;10.27;5.60;;;;;;;;;;6163776;23;20329;-44
2023/09/04 10:15:25;;;;;;;11.93;5.90;;;;;;;;;;6153317;23;20356;-44
2023/09/04 10:17:57;;;;;;;16.75;8.60;;;;;;;;;;6162187;23;20369;-44
2023/09/04 10:20:26;;;;;;;10.90;6.63;;;;;;;;;;6161829;23;20707;-41
2023/09/04 10:22:58;;;;;;;11.98;5.78;;;;;;;;;;6167313;23;20325;-43
2023/09/04 10:25:32;;;;;;;11.77;6.40;;;;;;;;;;6156163;23;20021;-44
2023/09/04 10:28:03;;;;;;;9.97;5.27;;;;;;;;;;6169281;23;20050;-44
2023/09/04 10:30:39;;;;;;;9.63;5.63;;;;;;;;;;6161740;23;20191;-45
2023/09/04 10:33:07;;;;;;;9.18;4.10;;;;;;;;;;6150325;23;20070;-46
2023/09/04 10:35:36;;;;;;;7.72;3.22;;;;;;;;;;6161036;23;20048;-45
2023/09/04 10:38:05;;;;;;;10.10;5.63;;;;;;;;;;6165521;23;20078;-45
2023/09/04 10:40:35;;;;;;;9.90;5.57;;;;;;;;;;6160739;23;20083;-43
2023/09/04 10:43:04;;;;;;;8.75;4.70;;;;;;;;;;6163257;23;20058;-44
2023/09/04 10:45:32;;;;;;;8.50;4.00;;;;;;;;;;6160242;23;20028;-47
2023/09/04 10:48:01;;;;;;;6.28;3.42;;;;;;;;;;6161783;23;20447;-46
2023/09/04 10:50:30;;;;;;;5.63;2.65;;;;;;;;;;6163594;23;20013;-43
2023/09/04 10:52:59;;;;;;;7.37;3.37;;;;;;;;;;6149329;23;20025;-43
2023/09/04 10:55:27;;;;;;;7.32;3.13;;;;;;;;;;6168161;23;20018;-45
2023/09/04 10:57:58;;;;;;;6.20;2.92;;;;;;;;;;6145004;23;20020;-44
2023/09/04 11:00:34;;;;;;;5.90;2.90;;;;;;;;;;6160723;23;20040;-45
2023/09/04 11:03:12;;;;;;;6.55;3.63;;;;;;;;;;6179101;23;20031;-46
2023/09/04 11:05:59;;;;;;;6.40;2.90;;;;;;;;;;6169952;23;20494;-47
2023/09/04 11:08:49;;;;;;;7.20;3.55;;;;;;;;;;6180725;23;20016;-47
2023/09/04 11:11:20;;;;;;;7.05;3.10;;;;;;;;;;6183650;23;20178;-44
2023/09/04 11:13:57;;;;;;;6.10;3.05;;;;;;;;;;6169094;23;20103;-47
2023/09/04 11:16:25;;;;;;;7.47;4.28;;;;;;;;;;6182588;23;20016;-46
2023/09/04 11:19:04;;;;;;;7.13;3.10;;;;;;;;;;6184597;23;20013;-44
2023/09/04 11:21:33;;;;;;;6.82;3.22;;;;;;;;;;6169688;23;20013;-43
2023/09/04 11:24:02;;;;;;;6.07;3.03;;;;;;;;;;6176419;23;20336;-43
2023/09/04 11:26:35;;;;;;;5.57;2.45;;;;;;;;;;6180653;23;20536;-43
2023/09/04 11:29:05;;;;;;;7.40;2.95;;;;;;;;;;6181549;23;20013;-43
2023/09/04 11:31:34;;;;;;;5.13;2.50;;;;;;;;;;6172064;23;20012;-43
2023/09/04 11:34:02;;;;;;;5.40;2.00;;;;;;;;;;6175450;23;20035;-42
2023/09/04 11:36:30;;;;;;;4.95;2.08;;;;;;;;;;6173791;23;20320;-45
2023/09/04 11:39:08;;;;;;;4.47;1.83;;;;;;;;;;6179506;23;20024;-43
2023/09/04 11:41:35;;;;;;;4.65;2.10;;;;;;;;;;6172240;23;20071;-43
2023/09/04 11:44:05;;;;;;;4.83;2.13;;;;;;;;;;6174024;23;20785;-42
2023/09/04 11:46:33;;;;;;;5.22;2.33;;;;;;;;;;6179134;23;20024;-44
2023/09/04 11:49:04;;;;;;;5.60;2.47;;;;;;;;;;6180908;23;20016;-45
2023/09/04 11:51:32;;;;;;;5.35;2.45;;;;;;;;;;6176862;23;20023;-44
2023/09/04 11:54:03;;;;;;;5.65;2.45;;;;;;;;;;6176199;23;20424;-45
2023/09/04 11:56:31;;;;;;;5.50;2.80;;;;;;;;;;6182335;23;20044;-45
2023/09/04 11:59:02;;;;;;;5.03;2.17;;;;;;;;;;6169106;23;20020;-42
2023/09/04 12:01:32;;;;;;;6.40;3.35;;;;;;;;;;6176373;23;20013;-42
2023/09/04 12:04:02;;;;;;;5.28;2.72;;;;;;;;;;6169457;23;20040;-42
2023/09/04 12:06:30;;;;;;;7.05;3.28;;;;;;;;;;6185766;23;20688;-42
2023/09/04 12:08:58;;;;;;;4.87;2.10;;;;;;;;;;6172697;23;20100;-44
2023/09/04 12:11:27;;;;;;;5.30;2.65;;;;;;;;;;6183610;23;20075;-42
2023/09/04 12:13:55;;;;;;;5.40;2.42;;;;;;;;;;6165625;23;20415;-42
2023/09/04 12:16:23;;;;;;;4.82;2.45;;;;;;;;;;6186737;23;20276;-42
2023/09/04 12:18:52;;;;;;;6.50;3.20;;;;;;;;;;6171893;23;20127;-41
2023/09/04 12:21:23;;;;;;;7.77;3.37;;;;;;;;;;6181272;23;20020;-43
2023/09/04 12:23:54;;;;;;;7.57;3.10;;;;;;;;;;6171976;23;20027;-42
2023/09/04 12:26:22;;;;;;;5.00;2.47;;;;;;;;;;6182708;23;20020;-43
2023/09/04 12:28:51;;;;;;;6.82;2.72;;;;;;;;;;6163974;23;20016;-45
2023/09/04 12:31:22;;;;;;;7.20;3.40;;;;;;;;;;6184069;23;20020;-43
2023/09/04 12:33:53;;;;;;;4.93;2.57;;;;;;;;;;6163857;23;20160;-45
2023/09/04 12:36:22;;;;;;;5.70;2.83;;;;;;;;;;6174687;23;20023;-41
2023/09/04 12:38:50;;;;;;;5.05;2.17;;;;;;;;;;6180257;23;20437;-44
2023/09/04 12:41:17;;;;;;;5.05;2.45;;;;;;;;;;6181190;23;20032;-42
2023/09/04 12:43:47;;;;;;;6.97;3.35;;;;;;;;;;6179102;23;20205;-45
2023/09/04 12:46:15;;;;;;;5.03;2.20;;;;;;;;;;6168403;23;20476;-44
2023/09/04 12:48:44;;;;;;;4.43;2.05;;;;;;;;;;6185777;23;20024;-42
2023/09/04 12:51:13;;;;;;;5.00;2.38;;;;;;;;;;6168408;23;20519;-43
2023/09/04 12:53:41;;;;;;;4.75;1.80;;;;;;;;;;6185990;23;20444;-43
2023/09/04 12:56:09;;;;;;;4.88;2.15;;;;;;;;;;6170739;23;20340;-42
2023/09/04 12:58:38;;;;;;;4.40;1.83;;;;;;;;;;6176294;23;20451;-44
2023/09/04 13:01:06;;;;;;;4.50;1.80;;;;;;;;;;6171937;23;20027;-44
2023/09/04 13:03:40;;;;;;;4.90;2.45;;;;;;;;;;6177551;23;20016;-44
2023/09/04 13:06:08;;;;;;;6.85;3.50;;;;;;;;;;6162953;23;20013;-44
2023/09/04 13:08:37;;;;;;;5.30;2.53;;;;;;;;;;6174341;23;20027;-43
2023/09/04 13:11:05;;;;;;;4.70;2.20;;;;;;;;;;6182298;23;20013;-44
2023/09/04 13:13:34;;;;;;;5.63;3.00;;;;;;;;;;6170508;23;20751;-44
2023/09/04 13:16:02;;;;;;;6.28;3.15;;;;;;;;;;6190809;23;20013;-45
2023/09/04 13:18:30;;;;;;;4.60;2.05;;;;;;;;;;6179301;23;20017;-43
2023/09/04 13:20:59;;;;;;;4.97;2.38;;;;;;;;;;6176988;23;20016;-43
2023/09/04 13:23:27;;;;;;;4.43;1.60;;;;;;;;;;6175248;23;20017;-43
2023/09/04 13:25:56;;;;;;;5.38;2.90;;;;;;;;;;6179365;23;20016;-44
2023/09/04 13:28:24;;;;;;;5.85;3.08;;;;;;;;;;6172950;23;20024;-44
2023/09/04 13:30:53;;;;;;;6.22;3.17;;;;;;;;;;6174515;23;20260;-43
2023/09/04 13:33:21;;;;;;;4.75;2.15;;;;;;;;;;6177356;23;20471;-44
2023/09/04 13:35:49;;;;;;;6.40;3.30;;;;;;;;;;6175802;23;20024;-42
2023/09/04 13:38:17;;;;;;;4.88;1.83;;;;;;;;;;6181568;23;20036;-43
2023/09/04 13:40:44;;;;;;;4.68;2.30;;;;;;;;;;6171622;23;20024;-43
2023/09/04 13:43:14;;;;;;;4.38;1.77;;;;;;;;;;6180151;23;20062;-44
2023/09/04 13:45:41;;;;;;;4.28;1.63;;;;;;;;;;6178441;23;20075;-45
2023/09/04 13:48:09;;;;;;;4.17;1.40;;;;;;;;;;6182176;23;20016;-43
2023/09/04 13:50:37;;;;;;;5.68;2.63;;;;;;;;;;6169630;23;20022;-42
2023/09/04 13:53:11;;;;;;;6.53;2.50;;;;;;;;;;6178391;23;20024;-44
2023/09/04 13:55:41;;;;;;;7.50;3.58;;;;;;;;;;6177793;23;20024;-43
2023/09/04 13:58:08;;;;;;;4.88;2.33;;;;;;;;;;6170486;23;20016;-42
2023/09/04 14:00:40;;;;;;;5.20;2.17;;;;;;;;;;6177099;23;20016;-43
2023/09/04 14:03:11;;;;;;;5.57;2.50;;;;;;;;;;6181172;23;20020;-44
2023/09/04 14:05:38;;;;;;;5.00;2.40;;;;;;;;;;6172036;23;20017;-43
2023/09/04 14:08:07;;;;;;;5.65;2.50;;;;;;;;;;6184916;23;20023;-44
2023/09/04 14:10:35;;;;;;;5.30;2.75;;;;;;;;;;6166268;23;20017;-43
2023/09/04 14:13:02;;;;;;;5.67;2.60;;;;;;;;;;6184693;23;20016;-44
2023/09/04 14:15:30;;;;;;;6.60;3.22;;;;;;;;;;6172079;23;20031;-45
2023/09/04 14:18:00;;;;;;;6.82;3.40;;;;;;;;;;6175738;23;20021;-42
2023/09/04 14:20:27;;;;;;;5.38;2.08;;;;;;;;;;6190961;23;20012;-42
2023/09/04 14:22:55;;;;;;;4.20;1.70;;;;;;;;;;6177764;23;20846;-43
2023/09/04 14:25:24;;;;;;;7.13;3.80;;;;;;;;;;6169825;23;20067;-42
2023/09/04 14:27:52;;;;;;;6.45;2.63;;;;;;;;;;6166363;23;20020;-42
2023/09/04 14:30:19;;;;;;;5.35;2.30;;;;;;;;;;6162190;23;20028;-44
2023/09/04 14:32:48;;;;;;;5.80;2.60;;;;;;;;;;6175820;23;20372;-48
2023/09/04 14:35:17;;;;;;;5.70;2.40;;;;;;;;;;6173674;23;20081;-43
2023/09/04 14:37:44;;;;;;;4.87;2.33;;;;;;;;;;6185866;23;20013;-47
2023/09/04 14:40:12;;;;;;;4.60;2.22;;;;;;;;;;6173565;23;20755;-44